Time;durP1;ratioP1;P1;durP2;ratioP2;P2;SDS_P1;SDS_P2;PMS_P1;PMS_P2;Temp;Humidity;BMP_temperature;BMP_pressure;BME280_temperature;BME280_humidity;BME280_pressure;Samples;Min_cycle;Max_cycle;Signal;HPM_P1;HPM_P2
2021/08/16 00:01:48;;;;;;;11.07;2.47;;;17.60;89.40;;;;;;5033365;28;20448;-61
2021/08/16 00:04:13;;;;;;;6.68;2.17;;;17.60;89.60;;;;;;5033174;28;20039;-61
2021/08/16 00:06:39;;;;;;;8.90;2.28;;;17.60;89.70;;;;;;5033385;28;20366;-61
2021/08/16 00:09:08;;;;;;;7.40;2.10;;;17.60;90.00;;;;;;5032016;28;20032;-61
2021/08/16 00:11:35;;;;;;;7.00;2.35;;;17.60;90.00;;;;;;5033363;28;20044;-60
2021/08/16 00:14:01;;;;;;;6.93;2.40;;;17.60;90.10;;;;;;5031859;28;20445;-61
2021/08/16 00:16:27;;;;;;;10.20;2.20;;;17.50;90.10;;;;;;5033198;28;20029;-61
2021/08/16 00:18:53;;;;;;;10.73;2.53;;;17.50;90.30;;;;;;5031882;28;20121;-61
2021/08/16 00:21:18;;;;;;;8.45;2.38;;;17.50;90.40;;;;;;5032723;28;20065;-60
2021/08/16 00:23:44;;;;;;;10.13;2.67;;;17.50;90.40;;;;;;5033171;28;20030;-61
2021/08/16 00:26:10;;;;;;;10.90;2.53;;;17.50;90.50;;;;;;5033102;28;20503;-61
2021/08/16 00:28:35;;;;;;;14.00;3.13;;;17.50;90.70;;;;;;5033102;28;20033;-60
2021/08/16 00:31:01;;;;;;;9.43;2.85;;;17.50;90.80;;;;;;5032917;28;20033;-61
2021/08/16 00:33:26;;;;;;;7.00;2.13;;;17.40;90.80;;;;;;5032783;28;20061;-60
2021/08/16 00:35:52;;;;;;;9.77;2.40;;;17.40;90.90;;;;;;5033079;28;20072;-60
2021/08/16 00:38:18;;;;;;;9.48;2.25;;;17.40;91.00;;;;;;5032810;28;20021;-60
2021/08/16 00:40:43;;;;;;;9.52;2.53;;;17.40;91.10;;;;;;5032688;28;20518;-61
2021/08/16 00:43:09;;;;;;;7.72;2.70;;;17.40;91.20;;;;;;5032889;28;20508;-60
2021/08/16 00:45:35;;;;;;;9.77;2.65;;;17.40;91.30;;;;;;5032804;28;20034;-61
2021/08/16 00:48:01;;;;;;;8.98;2.78;;;17.40;91.30;;;;;;5032641;28;20025;-60
2021/08/16 00:50:27;;;;;;;10.73;3.60;;;17.40;91.40;;;;;;5032837;28;20381;-60
2021/08/16 00:52:52;;;;;;;10.68;3.40;;;17.30;91.60;;;;;;5035955;28;20025;-61
2021/08/16 00:55:19;;;;;;;9.18;3.13;;;17.30;91.70;;;;;;5039347;28;20032;-61
2021/08/16 00:57:45;;;;;;;11.07;2.30;;;17.30;91.80;;;;;;5039359;28;20535;-60
2021/08/16 01:00:11;;;;;;;10.70;2.63;;;17.30;91.90;;;;;;5039368;28;20029;-61
2021/08/16 01:02:40;;;;;;;9.75;2.65;;;17.30;91.90;;;;;;5039644;28;20041;-60
2021/08/16 01:05:07;;;;;;;13.27;4.07;;;17.30;92.00;;;;;;5039169;28;20501;-61
2021/08/16 01:07:34;;;;;;;12.55;2.85;;;17.20;92.10;;;;;;5039101;28;20104;-60
2021/08/16 01:10:01;;;;;;;10.75;2.10;;;17.20;92.20;;;;;;5039146;28;20026;-60
2021/08/16 01:12:29;;;;;;;12.18;2.75;;;17.20;92.20;;;;;;5039190;28;20024;-60
2021/08/16 01:14:54;;;;;;;12.30;2.55;;;17.20;92.30;;;;;;5038993;28;20056;-61
2021/08/16 01:17:20;;;;;;;13.82;2.75;;;17.20;92.40;;;;;;5039269;28;20434;-61
2021/08/16 01:19:46;;;;;;;11.82;2.15;;;17.10;92.60;;;;;;5039220;28;20030;-60
2021/08/16 01:22:12;;;;;;;13.93;3.17;;;17.10;92.60;;;;;;5039049;28;20032;-61
2021/08/16 01:24:39;;;;;;;10.82;2.70;;;17.10;92.70;;;;;;5039098;28;20382;-61
2021/08/16 01:27:09;;;;;;;7.38;1.95;;;17.10;92.80;;;;;;5039023;28;20030;-60
2021/08/16 01:29:34;;;;;;;;;;;17.10;92.80;;;;;;5039156;28;20026;-60
2021/08/16 01:32:02;;;;;;;9.00;3.03;;;17.10;92.90;;;;;;5039005;28;19905;-61
2021/08/16 01:34:30;;;;;;;9.70;2.22;;;17.00;93.10;;;;;;5038851;28;20026;-60
2021/08/16 01:36:56;;;;;;;14.05;3.35;;;17.10;93.10;;;;;;5039020;28;20025;-60
2021/08/16 01:39:22;;;;;;;10.60;2.67;;;17.10;93.30;;;;;;5038842;28;20033;-61
2021/08/16 01:41:48;;;;;;;9.75;2.55;;;17.10;93.30;;;;;;5038864;28;20053;-60
2021/08/16 01:44:18;;;;;;;12.88;2.85;;;17.10;93.40;;;;;;5038492;28;20033;-61
2021/08/16 01:46:44;;;;;;;10.27;2.80;;;17.10;93.50;;;;;;5038820;28;20030;-61
2021/08/16 01:49:11;;;;;;;11.13;2.58;;;17.10;93.60;;;;;;5038776;28;20029;-61
2021/08/16 01:51:37;;;;;;;12.07;3.10;;;17.10;93.60;;;;;;5038641;28;20029;-61
2021/08/16 01:54:07;;;;;;;13.15;2.78;;;17.10;93.70;;;;;;5038648;28;20128;-61
2021/08/16 01:56:33;;;;;;;15.10;3.42;;;17.10;93.80;;;;;;5038629;28;20076;-61
2021/08/16 01:58:59;;;;;;;9.32;2.30;;;17.10;93.90;;;;;;5038636;28;20037;-61
2021/08/16 02:01:25;;;;;;;11.95;3.05;;;17.10;94.00;;;;;;5038646;28;20033;-61
2021/08/16 02:03:51;;;;;;;10.07;2.53;;;17.10;94.00;;;;;;5036941;28;20030;-61
2021/08/16 02:06:16;;;;;;;17.75;3.08;;;17.10;94.00;;;;;;5034115;28;20041;-60
2021/08/16 02:08:42;;;;;;;10.98;3.03;;;17.10;94.20;;;;;;5035513;28;20152;-61
2021/08/16 02:11:08;;;;;;;12.75;2.47;;;17.10;94.30;;;;;;5035330;28;20018;-61
2021/08/16 02:13:34;;;;;;;10.80;2.42;;;17.00;94.30;;;;;;5035213;28;20516;-60
2021/08/16 02:16:09;;;;;;;13.93;2.78;;;17.10;94.40;;;;;;5035454;28;20104;-61
2021/08/16 02:18:34;;;;;;;14.63;3.00;;;17.00;94.50;;;;;;5035389;28;20021;-61
2021/08/16 02:21:00;;;;;;;14.70;2.85;;;17.00;94.60;;;;;;5035409;28;20037;-61
2021/08/16 02:23:26;;;;;;;12.02;3.17;;;17.00;94.60;;;;;;5035227;28;20048;-61
2021/08/16 02:25:52;;;;;;;15.90;3.35;;;17.00;94.70;;;;;;5035011;28;20027;-60
2021/08/16 02:28:18;;;;;;;12.23;2.33;;;17.00;94.80;;;;;;5035182;28;20017;-61
2021/08/16 02:30:45;;;;;;;10.23;2.40;;;17.00;94.80;;;;;;5035012;28;20033;-61
2021/08/16 02:33:12;;;;;;;6.25;2.08;;;17.10;94.90;;;;;;5035081;28;20470;-61
2021/08/16 02:35:39;;;;;;;11.48;3.30;;;17.00;94.90;;;;;;5034913;28;20030;-61
2021/08/16 02:38:04;;;;;;;10.35;2.58;;;17.00;95.10;;;;;;5035103;28;20030;-61
2021/08/16 02:40:30;;;;;;;10.80;2.70;;;17.00;95.20;;;;;;5034669;28;20025;-61
2021/08/16 02:42:55;;;;;;;9.10;2.90;;;17.00;95.30;;;;;;5034501;28;20049;-61
2021/08/16 02:45:21;;;;;;;10.13;2.55;;;17.00;95.30;;;;;;5034854;28;20017;-61
2021/08/16 02:47:47;;;;;;;11.93;2.78;;;17.10;95.40;;;;;;5034853;28;20021;-61
2021/08/16 02:50:13;;;;;;;10.43;2.47;;;17.00;95.50;;;;;;5034736;28;20126;-61
2021/08/16 02:52:39;;;;;;;10.63;2.70;;;17.00;95.60;;;;;;5034551;28;20060;-60
2021/08/16 02:55:05;;;;;;;13.40;3.05;;;17.00;95.60;;;;;;5034308;28;20025;-61
2021/08/16 02:57:31;;;;;;;13.55;3.33;;;17.00;95.70;;;;;;5034727;28;20128;-60
2021/08/16 02:59:56;;;;;;;12.25;3.00;;;17.00;95.70;;;;;;5034554;28;20485;-61
2021/08/16 03:02:22;;;;;;;10.43;3.38;;;17.00;95.80;;;;;;5034566;28;20155;-61
2021/08/16 03:04:48;;;;;;;15.10;2.90;;;17.00;95.90;;;;;;5034487;28;20052;-61
2021/08/16 03:07:14;;;;;;;9.95;3.17;;;17.00;96.00;;;;;;5034511;28;20029;-61
2021/08/16 03:09:40;;;;;;;5.82;2.47;;;17.00;96.10;;;;;;5034065;28;20180;-61
2021/08/16 03:12:06;;;;;;;8.10;2.80;;;16.90;96.00;;;;;;5034152;28;20030;-61
2021/08/16 03:14:32;;;;;;;9.98;3.03;;;16.90;96.10;;;;;;5034700;28;20018;-61
2021/08/16 03:16:58;;;;;;;10.48;2.45;;;16.90;96.10;;;;;;5034005;28;20026;-61
2021/08/16 03:19:24;;;;;;;10.27;3.30;;;16.90;96.10;;;;;;5034441;28;20051;-61
2021/08/16 03:21:49;;;;;;;16.30;3.88;;;17.00;96.20;;;;;;5034106;28;20033;-61
2021/08/16 03:24:15;;;;;;;9.50;3.20;;;17.00;96.20;;;;;;5034016;28;20031;-60
2021/08/16 03:26:40;;;;;;;11.32;3.38;;;16.90;96.20;;;;;;5033865;28;20393;-61
2021/08/16 03:29:06;;;;;;;8.25;3.63;;;16.90;96.20;;;;;;5032791;28;20037;-61
2021/08/16 03:31:31;;;;;;;10.00;3.78;;;16.90;96.30;;;;;;5033899;28;20049;-61
2021/08/16 03:33:57;;;;;;;11.93;4.10;;;16.90;96.40;;;;;;5033716;28;20021;-61
2021/08/16 03:36:22;;;;;;;13.35;4.10;;;16.90;96.50;;;;;;5033953;28;20040;-61
2021/08/16 03:38:48;;;;;;;14.00;3.95;;;16.90;96.50;;;;;;5033784;28;20080;-61
2021/08/16 03:41:16;;;;;;;12.30;3.70;;;16.90;96.50;;;;;;5033546;28;20061;-61
2021/08/16 03:43:42;;;;;;;13.05;4.13;;;16.80;96.50;;;;;;5033646;28;20021;-60
2021/08/16 03:46:07;;;;;;;10.27;3.10;;;16.80;96.50;;;;;;5033740;28;20041;-61
2021/08/16 03:48:33;;;;;;;12.40;3.63;;;16.80;96.50;;;;;;5033726;28;20056;-61
2021/08/16 03:50:58;;;;;;;13.80;4.07;;;16.90;96.50;;;;;;5033574;28;20030;-61
2021/08/16 03:53:24;;;;;;;12.75;3.70;;;16.90;96.50;;;;;;5033306;28;20477;-61
2021/08/16 03:55:49;;;;;;;9.30;4.68;;;16.80;96.60;;;;;;5033436;28;20060;-61
2021/08/16 03:58:15;;;;;;;10.05;3.90;;;16.80;96.60;;;;;;5033699;28;20026;-61
2021/08/16 04:00:41;;;;;;;10.95;4.00;;;16.80;96.60;;;;;;5033261;28;20473;-61
2021/08/16 04:03:06;;;;;;;13.75;3.63;;;16.80;96.70;;;;;;5033069;28;20021;-61
2021/08/16 04:05:32;;;;;;;11.05;4.10;;;16.90;96.70;;;;;;5033007;28;20026;-60
2021/08/16 04:07:58;;;;;;;10.68;4.15;;;16.90;96.80;;;;;;5032567;28;20017;-61
2021/08/16 04:10:23;;;;;;;13.45;4.47;;;16.90;96.80;;;;;;5032992;28;20037;-61
2021/08/16 04:12:49;;;;;;;11.75;4.72;;;16.90;96.90;;;;;;5033130;28;20028;-61
2021/08/16 04:15:19;;;;;;;12.60;4.75;;;16.90;97.00;;;;;;5033176;28;20068;-61
2021/08/16 04:17:45;;;;;;;11.13;4.72;;;16.90;97.00;;;;;;5033071;28;20112;-61
2021/08/16 04:20:12;;;;;;;13.73;4.97;;;16.90;97.10;;;;;;5033126;28;20038;-61
2021/08/16 04:22:37;;;;;;;10.80;4.80;;;16.90;97.20;;;;;;5032834;28;20033;-60
2021/08/16 04:25:06;;;;;;;12.15;5.18;;;16.90;97.20;;;;;;5033102;28;20108;-61
2021/08/16 04:27:31;;;;;;;9.75;4.30;;;16.90;97.20;;;;;;5032351;28;20030;-60
2021/08/16 04:29:57;;;;;;;10.55;4.45;;;16.90;97.20;;;;;;5032844;28;20022;-61
2021/08/16 04:32:22;;;;;;;15.02;5.75;;;16.90;97.30;;;;;;5031949;28;20045;-61
2021/08/16 04:34:48;;;;;;;16.83;6.00;;;16.90;97.30;;;;;;5032909;28;20029;-61
2021/08/16 04:37:13;;;;;;;10.07;6.43;;;16.90;97.40;;;;;;5033187;28;20538;-61
2021/08/16 04:39:39;;;;;;;15.27;6.38;;;16.80;97.50;;;;;;5032973;28;20116;-61
2021/08/16 04:42:04;;;;;;;15.45;6.22;;;16.80;97.50;;;;;;5032444;28;20046;-61
2021/08/16 04:44:30;;;;;;;11.80;6.82;;;16.80;97.60;;;;;;5032438;28;20034;-60
2021/08/16 04:46:55;;;;;;;21.88;8.27;;;16.80;97.70;;;;;;5032641;28;20116;-61
2021/08/16 04:49:21;;;;;;;14.52;7.55;;;16.80;97.80;;;;;;5032743;28;20160;-61
2021/08/16 04:51:46;;;;;;;12.23;6.82;;;16.70;97.80;;;;;;5032483;28;20030;-61
2021/08/16 04:54:12;;;;;;;17.52;7.85;;;16.70;97.90;;;;;;5032694;28;20489;-61
2021/08/16 04:56:38;;;;;;;10.50;7.07;;;16.70;98.00;;;;;;5032678;28;20079;-61
2021/08/16 04:59:04;;;;;;;13.55;8.95;;;16.70;98.30;;;;;;5032559;28;20448;-61
2021/08/16 05:01:30;;;;;;;16.35;8.57;;;16.70;98.00;;;;;;5032678;28;20025;-61
2021/08/16 05:03:56;;;;;;;21.67;11.20;;;16.70;98.10;;;;;;5032439;28;20021;-60
2021/08/16 05:06:28;;;;;;;16.67;9.93;;;16.70;98.20;;;;;;5032500;28;20500;-61
2021/08/16 05:08:55;;;;;;;18.15;10.38;;;16.80;98.20;;;;;;5031424;28;20440;-61
2021/08/16 05:11:21;;;;;;;14.68;9.93;;;16.80;98.20;;;;;;5032593;28;20037;-61
2021/08/16 05:13:46;;;;;;;16.77;10.23;;;16.80;98.20;;;;;;5032342;28;20366;-60
2021/08/16 05:16:12;;;;;;;14.90;9.90;;;16.80;98.30;;;;;;5032529;28;20029;-61
2021/08/16 05:18:38;;;;;;;16.02;9.77;;;16.80;98.30;;;;;;5032463;28;20034;-61
2021/08/16 05:21:03;;;;;;;18.75;10.70;;;16.80;98.20;;;;;;5031092;28;20026;-61
2021/08/16 05:23:29;;;;;;;19.92;12.00;;;16.80;98.20;;;;;;5032342;28;20037;-60
2021/08/16 05:25:54;;;;;;;21.55;11.55;;;16.80;98.30;;;;;;5032823;28;20063;-61
2021/08/16 05:28:21;;;;;;;18.77;10.38;;;16.80;98.30;;;;;;5032169;28;20397;-60
2021/08/16 05:30:47;;;;;;;18.55;10.70;;;16.90;98.40;;;;;;5031242;28;20053;-60
2021/08/16 05:33:12;;;;;;;16.50;11.00;;;16.90;98.30;;;;;;5032163;28;20057;-61
2021/08/16 05:35:38;;;;;;;21.50;11.90;;;16.90;98.30;;;;;;5032497;28;20021;-61
2021/08/16 05:38:04;;;;;;;22.60;12.90;;;16.90;98.30;;;;;;5032221;28;20025;-60
2021/08/16 05:40:30;;;;;;;19.33;12.82;;;16.90;98.30;;;;;;5034892;28;20124;-60
2021/08/16 05:42:55;;;;;;;21.25;13.57;;;16.90;98.40;;;;;;5035432;28;20117;-61
2021/08/16 05:45:21;;;;;;;19.05;12.50;;;16.90;98.40;;;;;;5035922;28;20021;-61
2021/08/16 05:47:46;;;;;;;18.23;13.00;;;17.00;98.40;;;;;;5035900;28;20388;-60
2021/08/16 05:50:12;;;;;;;20.70;12.63;;;17.00;98.40;;;;;;5034248;28;20037;-61
2021/08/16 05:52:38;;;;;;;20.65;13.63;;;17.00;98.40;;;;;;5035648;28;20036;-60
2021/08/16 05:55:05;;;;;;;24.10;14.25;;;17.10;98.40;;;;;;5018619;28;20053;-61
2021/08/16 05:57:30;;;;;;;22.60;14.07;;;17.10;98.30;;;;;;5029319;28;20026;-61
2021/08/16 05:59:56;;;;;;;21.58;14.63;;;17.10;98.30;;;;;;5016365;28;20030;-61
2021/08/16 06:02:22;;;;;;;17.92;13.32;;;17.10;98.40;;;;;;5015517;28;20529;-61
2021/08/16 06:04:48;;;;;;;20.40;12.82;;;17.10;98.30;;;;;;5015768;28;20032;-61
2021/08/16 06:07:13;;;;;;;18.98;13.15;;;17.20;98.30;;;;;;5015754;28;20038;-61
2021/08/16 06:09:39;;;;;;;21.45;14.10;;;17.30;98.20;;;;;;5015935;28;20057;-60
2021/08/16 06:12:08;;;;;;;21.92;14.15;;;17.20;98.20;;;;;;5015629;28;20548;-61
2021/08/16 06:14:33;;;;;;;24.13;15.23;;;17.20;98.20;;;;;;5015626;28;20036;-61
2021/08/16 06:16:59;;;;;;;17.95;14.52;;;17.30;98.30;;;;;;5015613;28;20109;-61
2021/08/16 06:19:25;;;;;;;16.75;13.50;;;17.30;98.20;;;;;;5015503;28;20057;-60
2021/08/16 06:21:50;;;;;;;19.08;14.10;;;17.30;98.20;;;;;;5014392;28;20030;-61
2021/08/16 06:24:18;;;;;;;18.63;13.13;;;17.30;98.20;;;;;;5014089;28;20030;-60
2021/08/16 06:26:44;;;;;;;19.92;14.23;;;17.40;98.10;;;;;;5015558;28;20038;-60
2021/08/16 06:29:09;;;;;;;21.02;14.40;;;17.40;98.10;;;;;;5015075;28;20033;-60
2021/08/16 06:31:35;;;;;;;16.13;13.77;;;17.40;98.10;;;;;;5031479;28;20029;-61
2021/08/16 06:34:00;;;;;;;16.85;13.60;;;17.50;98.00;;;;;;5035473;28;20032;-61
2021/08/16 06:36:26;;;;;;;19.10;13.93;;;17.50;98.00;;;;;;5034405;28;20026;-61
2021/08/16 06:38:52;;;;;;;20.63;14.60;;;17.60;98.00;;;;;;5034557;28;20053;-61
2021/08/16 06:41:18;;;;;;;18.77;14.23;;;17.60;98.00;;;;;;5034593;28;20055;-61
2021/08/16 06:43:46;;;;;;;17.75;12.93;;;17.50;98.00;;;;;;5034800;28;20032;-60
2021/08/16 06:46:14;;;;;;;20.20;13.93;;;17.60;98.10;;;;;;5034571;28;20062;-61
2021/08/16 06:48:40;;;;;;;22.17;14.48;;;17.50;98.20;;;;;;5033509;28;20117;-61
2021/08/16 06:51:05;;;;;;;19.40;14.45;;;17.50;98.30;;;;;;5034660;28;20096;-61
2021/08/16 06:53:31;;;;;;;17.25;14.48;;;17.50;98.40;;;;;;5018577;28;20030;-61
2021/08/16 06:55:56;;;;;;;15.40;13.60;;;17.50;98.60;;;;;;5015057;28;20026;-61
2021/08/16 06:58:22;;;;;;;17.95;13.07;;;17.50;98.80;;;;;;5014928;28;20371;-61
2021/08/16 07:00:48;;;;;;;19.60;15.43;;;17.40;99.00;;;;;;5014640;28;20022;-61
2021/08/16 07:03:13;;;;;;;16.70;14.93;;;17.40;99.20;;;;;;5018654;28;20021;-61
2021/08/16 07:05:43;;;;;;;17.75;15.80;;;17.40;99.40;;;;;;5033523;28;20021;-61
2021/08/16 07:08:13;;;;;;;19.92;15.40;;;17.40;99.70;;;;;;5033811;28;20053;-61
2021/08/16 07:10:39;;;;;;;18.17;15.18;;;17.40;99.90;;;;;;5033158;28;20021;-61
2021/08/16 07:13:06;;;;;;;18.45;15.77;;;17.30;99.90;;;;;;5031748;28;20025;-61
2021/08/16 07:15:32;;;;;;;19.48;17.08;;;17.30;99.90;;;;;;5032610;28;20018;-61
2021/08/16 07:17:57;;;;;;;18.25;15.18;;;17.20;99.90;;;;;;5033159;28;20028;-61
2021/08/16 07:20:23;;;;;;;20.70;14.88;;;17.10;99.90;;;;;;5033397;28;20049;-61
2021/08/16 07:22:49;;;;;;;18.35;16.58;;;17.10;99.90;;;;;;5033283;28;20033;-61
2021/08/16 07:25:14;;;;;;;18.27;15.70;;;17.10;99.90;;;;;;5032348;28;20521;-60
2021/08/16 07:27:40;;;;;;;21.40;16.20;;;17.10;99.90;;;;;;5034125;28;20037;-61
2021/08/16 07:30:07;;;;;;;16.83;13.70;;;17.10;99.90;;;;;;5050301;28;20112;-61
2021/08/16 07:32:32;;;;;;;11.93;10.00;;;17.10;99.90;;;;;;5052415;28;20017;-61
2021/08/16 07:34:58;;;;;;;12.43;10.55;;;17.10;99.90;;;;;;5033987;28;20026;-61
2021/08/16 07:37:23;;;;;;;10.55;8.32;;;17.20;99.90;;;;;;5033528;28;20537;-60
2021/08/16 07:39:51;;;;;;;9.52;7.32;;;17.30;99.90;;;;;;5032065;28;20068;-61
2021/08/16 07:42:18;;;;;;;6.80;6.18;;;17.30;99.90;;;;;;5033637;28;20460;-61
2021/08/16 07:44:44;;;;;;;6.78;6.10;;;17.30;99.90;;;;;;5032679;28;20124;-60
2021/08/16 07:47:10;;;;;;;6.57;5.20;;;17.30;99.90;;;;;;5032929;28;20061;-61
2021/08/16 07:49:35;;;;;;;5.75;4.85;;;17.30;99.90;;;;;;5032795;28;20017;-61
2021/08/16 07:52:01;;;;;;;7.63;5.80;;;17.30;99.90;;;;;;5032860;28;20017;-62
2021/08/16 07:54:27;;;;;;;6.65;5.82;;;17.30;99.90;;;;;;5032321;28;20018;-62
2021/08/16 07:56:53;;;;;;;5.13;4.07;;;17.30;99.90;;;;;;5032670;28;20022;-61
2021/08/16 07:59:19;;;;;;;6.03;2.47;;;17.30;99.90;;;;;;5032693;28;20044;-61
2021/08/16 08:01:47;;;;;;;5.43;1.75;;;17.30;99.90;;;;;;5031802;28;20104;-61
2021/08/16 08:04:14;;;;;;;4.65;1.80;;;17.30;99.90;;;;;;5032418;28;20390;-61
2021/08/16 08:06:39;;;;;;;3.45;1.95;;;17.30;99.90;;;;;;5032542;28;20017;-61
2021/08/16 08:09:06;;;;;;;3.08;1.80;;;17.30;99.90;;;;;;5030967;28;20405;-60
2021/08/16 08:11:31;;;;;;;3.95;2.25;;;17.30;99.90;;;;;;5032443;28;20024;-61
2021/08/16 08:13:57;;;;;;;4.03;1.80;;;17.40;99.90;;;;;;5032418;28;20485;-61
2021/08/16 08:16:22;;;;;;;4.35;1.85;;;17.50;99.90;;;;;;5032299;28;20385;-61
2021/08/16 08:18:48;;;;;;;3.63;1.50;;;17.60;99.90;;;;;;5032247;28;20029;-61
2021/08/16 08:21:13;;;;;;;4.10;2.00;;;17.60;99.90;;;;;;5032270;28;20037;-61
2021/08/16 08:23:39;;;;;;;5.53;1.77;;;17.50;99.90;;;;;;5032356;28;20026;-61
2021/08/16 08:26:05;;;;;;;6.15;2.00;;;17.50;99.90;;;;;;5032101;28;20055;-61
2021/08/16 08:28:31;;;;;;;7.88;2.17;;;17.50;99.90;;;;;;5042154;28;20029;-61
2021/08/16 08:30:57;;;;;;;4.22;2.08;;;17.40;99.90;;;;;;5032068;28;20036;-61
2021/08/16 08:33:23;;;;;;;3.47;1.52;;;17.30;99.90;;;;;;5032040;28;20018;-61
2021/08/16 08:35:50;;;;;;;4.25;1.42;;;17.30;99.90;;;;;;5029741;28;20091;-61
2021/08/16 08:38:16;;;;;;;4.85;1.70;;;17.20;99.80;;;;;;5032153;28;20024;-61
2021/08/16 08:40:43;;;;;;;3.80;1.60;;;17.30;99.90;;;;;;5031762;28;20414;-61
2021/08/16 08:43:11;;;;;;;4.15;1.75;;;17.30;99.80;;;;;;5031874;28;20511;-61
2021/08/16 08:45:39;;;;;;;3.87;1.67;;;17.40;99.80;;;;;;5031869;28;20068;-61
2021/08/16 08:48:05;;;;;;;3.92;1.58;;;17.50;99.80;;;;;;5032038;28;20037;-61
2021/08/16 08:50:31;;;;;;;2.75;1.52;;;17.50;99.70;;;;;;5031956;28;20017;-61
2021/08/16 08:53:02;;;;;;;3.28;1.38;;;17.60;99.50;;;;;;5031776;28;20029;-61
2021/08/16 08:55:28;;;;;;;3.63;1.98;;;17.70;99.40;;;;;;5031788;28;20154;-61
2021/08/16 08:57:54;;;;;;;4.28;2.33;;;17.80;99.40;;;;;;5031782;28;20029;-61
2021/08/16 09:00:20;;;;;;;8.20;3.13;;;17.80;99.30;;;;;;5032111;28;20091;-60
2021/08/16 09:03:03;;;;;;;2.65;1.90;;;17.90;99.10;;;;;;5031637;28;20045;-61
2021/08/16 09:05:30;;;;;;;4.30;1.83;;;18.10;98.90;;;;;;5031855;28;20080;-61
2021/08/16 09:07:58;;;;;;;6.90;1.60;;;18.20;98.80;;;;;;5032213;28;20455;-60
2021/08/16 09:10:27;;;;;;;3.17;1.63;;;18.20;98.60;;;;;;5032250;28;20033;-61
2021/08/16 09:12:57;;;;;;;;;;;18.30;98.50;;;;;;5032748;28;20025;-61
2021/08/16 09:15:29;;;;;;;6.65;2.20;;;18.30;98.50;;;;;;5036469;28;19905;-61
2021/08/16 09:17:55;;;;;;;7.93;2.20;;;18.30;98.30;;;;;;5036660;28;20026;-61
2021/08/16 09:20:24;;;;;;;6.13;2.20;;;18.30;97.90;;;;;;5036347;28;20037;-61
2021/08/16 09:23:14;;;;;;;3.33;1.97;;;18.40;97.70;;;;;;5035160;28;20163;-61
2021/08/16 09:25:52;;;;;;;6.05;1.92;;;18.50;97.40;;;;;;5036406;28;20029;-60
2021/08/16 09:28:29;;;;;;;7.43;2.30;;;18.60;97.10;;;;;;5036360;28;20029;-61
2021/08/16 09:30:55;;;;;;;4.47;2.03;;;18.70;96.60;;;;;;5034719;28;20037;-61
2021/08/16 09:33:22;;;;;;;4.32;1.77;;;18.70;96.20;;;;;;5036079;28;20030;-61
2021/08/16 09:35:51;;;;;;;5.32;1.75;;;18.70;96.10;;;;;;5036229;28;20366;-60
2021/08/16 09:38:17;;;;;;;6.07;2.03;;;18.70;96.10;;;;;;5036198;28;20025;-61
2021/08/16 09:40:42;;;;;;;4.05;2.00;;;18.60;96.10;;;;;;5035870;28;20498;-61
2021/08/16 09:43:08;;;;;;;6.15;1.80;;;18.60;95.90;;;;;;5035912;28;20029;-61
2021/08/16 09:45:38;;;;;;;5.07;2.15;;;18.50;95.80;;;;;;5036127;28;20043;-61
2021/08/16 09:48:04;;;;;;;;;;;18.50;95.60;;;;;;5036372;28;20017;-60
2021/08/16 09:50:37;;;;;;;6.57;2.25;;;18.30;95.40;;;;;;5035712;28;19909;-61
2021/08/16 09:53:08;;;;;;;6.13;2.22;;;18.30;95.40;;;;;;5033940;28;20428;-61
2021/08/16 09:55:39;;;;;;;6.80;2.40;;;18.30;95.20;;;;;;5035778;28;20112;-61
2021/08/16 09:58:09;;;;;;;5.82;2.85;;;18.30;94.80;;;;;;5035947;28;20032;-61
2021/08/16 10:00:36;;;;;;;6.85;3.13;;;18.20;94.40;;;;;;5035644;28;20448;-61
2021/08/16 10:03:03;;;;;;;8.43;3.08;;;18.20;94.40;;;;;;5034193;28;20021;-61
2021/08/16 10:05:31;;;;;;;5.20;2.97;;;18.20;94.20;;;;;;5035472;28;20038;-61
2021/08/16 10:07:58;;;;;;;7.13;3.10;;;18.20;94.10;;;;;;5035225;28;20349;-61
2021/08/16 10:10:24;;;;;;;8.25;3.33;;;18.20;93.90;;;;;;5035286;28;20025;-61
2021/08/16 10:13:00;;;;;;;6.15;3.90;;;18.20;93.80;;;;;;5035421;28;20030;-61
2021/08/16 10:15:26;;;;;;;7.63;3.42;;;18.20;93.70;;;;;;5035527;28;20052;-61
2021/08/16 10:18:01;;;;;;;6.68;3.65;;;18.20;93.60;;;;;;5035096;28;20507;-61
2021/08/16 10:20:28;;;;;;;7.18;3.92;;;18.30;93.60;;;;;;5035255;28;20623;-60
2021/08/16 10:22:54;;;;;;;10.50;4.25;;;18.30;93.60;;;;;;5034888;28;20040;-60
2021/08/16 10:25:20;;;;;;;8.82;3.55;;;18.50;93.40;;;;;;5034229;28;20025;-61
2021/08/16 10:27:46;;;;;;;8.40;4.32;;;18.70;93.20;;;;;;5035140;28;20036;-61
2021/08/16 10:30:17;;;;;;;8.63;3.90;;;19.00;92.60;;;;;;5035109;28;20540;-61
2021/08/16 10:32:43;;;;;;;8.80;4.90;;;19.10;92.50;;;;;;5035219;28;20072;-61
2021/08/16 10:35:14;;;;;;;9.48;5.03;;;19.20;92.20;;;;;;5033537;28;20021;-61
2021/08/16 10:37:45;;;;;;;8.45;4.65;;;19.40;91.90;;;;;;5017341;28;20091;-61
2021/08/16 10:40:15;;;;;;;9.90;4.82;;;19.50;90.90;;;;;;5035010;28;20053;-61
2021/08/16 10:42:41;;;;;;;9.70;4.68;;;19.50;90.10;;;;;;5034802;28;20457;-61
2021/08/16 10:45:09;;;;;;;10.90;5.65;;;19.70;90.30;;;;;;5034448;28;20029;-61
2021/08/16 10:47:35;;;;;;;9.02;5.50;;;20.00;89.50;;;;;;5033579;28;20061;-60
2021/08/16 10:50:19;;;;;;;9.35;5.60;;;20.10;88.90;;;;;;5034489;28;20033;-61
2021/08/16 10:52:45;;;;;;;10.25;4.88;;;20.10;87.80;;;;;;5034523;28;20036;-61
2021/08/16 10:55:25;;;;;;;13.77;5.22;;;20.10;87.20;;;;;;5034451;28;20025;-61
2021/08/16 10:57:50;;;;;;;9.35;5.15;;;20.10;87.00;;;;;;5034679;28;20448;-61
2021/08/16 11:00:16;;;;;;;9.23;5.43;;;20.10;87.00;;;;;;5033248;28;20109;-61
2021/08/16 11:02:42;;;;;;;8.48;5.05;;;20.20;86.60;;;;;;5033153;28;20022;-61
2021/08/16 11:05:12;;;;;;;10.70;5.22;;;20.30;86.30;;;;;;5033040;28;20028;-61
2021/08/16 11:07:40;;;;;;;8.57;4.70;;;20.30;85.60;;;;;;5031961;28;20022;-61
2021/08/16 11:10:08;;;;;;;6.88;4.18;;;20.40;86.10;;;;;;5029240;28;20112;-61
2021/08/16 11:12:38;;;;;;;10.15;5.18;;;20.40;86.00;;;;;;5031211;28;20136;-61
2021/08/16 11:15:05;;;;;;;12.27;6.13;;;20.40;85.00;;;;;;5032667;28;20017;-61
2021/08/16 11:17:31;;;;;;;10.68;5.05;;;20.20;85.00;;;;;;5032903;28;20014;-61
2021/08/16 11:20:00;;;;;;;10.57;4.95;;;20.10;85.10;;;;;;5032766;28;20071;-60
2021/08/16 11:22:27;;;;;;;7.03;4.70;;;19.90;84.70;;;;;;5032143;28;20057;-61
2021/08/16 11:24:52;;;;;;;9.00;5.43;;;19.80;84.80;;;;;;5032672;28;20017;-61
2021/08/16 11:27:24;;;;;;;7.45;4.05;;;19.70;85.30;;;;;;5033374;28;20026;-61
2021/08/16 11:30:04;;;;;;;9.63;4.15;;;19.60;85.90;;;;;;5033293;28;20112;-61
2021/08/16 11:32:31;;;;;;;8.35;4.28;;;19.50;86.20;;;;;;5032180;28;20068;-61
2021/08/16 11:34:58;;;;;;;6.45;3.67;;;19.40;86.30;;;;;;5033125;28;20040;-61
2021/08/16 11:37:29;;;;;;;8.07;3.70;;;19.30;87.00;;;;;;5032949;28;20026;-61
2021/08/16 11:39:56;;;;;;;10.05;4.50;;;19.30;87.70;;;;;;5033104;28;20113;-61
2021/08/16 11:42:23;;;;;;;8.70;4.13;;;19.30;88.20;;;;;;5032966;28;20124;-61
2021/08/16 11:45:00;;;;;;;5.57;3.70;;;19.30;88.00;;;;;;5032860;28;20021;-61
2021/08/16 11:47:28;;;;;;;6.78;3.00;;;19.30;87.70;;;;;;5031673;28;20396;-61
2021/08/16 11:50:01;;;;;;;4.95;3.00;;;19.30;86.30;;;;;;5032893;28;20465;-61
2021/08/16 11:52:28;;;;;;;4.78;2.30;;;19.40;85.00;;;;;;5032696;28;20021;-61
2021/08/16 11:54:54;;;;;;;4.85;2.53;;;19.40;84.50;;;;;;5031629;28;20021;-61
2021/08/16 11:57:25;;;;;;;5.35;2.80;;;19.40;84.10;;;;;;5033279;28;20026;-61
2021/08/16 11:59:52;;;;;;;5.88;3.05;;;19.40;84.00;;;;;;5032870;28;20501;-61
2021/08/16 12:02:20;;;;;;;5.15;3.42;;;19.40;84.00;;;;;;5032431;28;20493;-61
2021/08/16 12:04:49;;;;;;;5.28;2.80;;;19.40;84.00;;;;;;5033521;28;20108;-61
2021/08/16 12:07:21;;;;;;;5.65;2.67;;;19.40;83.80;;;;;;5033310;28;20040;-61
2021/08/16 12:09:47;;;;;;;5.40;2.83;;;19.40;83.70;;;;;;5033575;28;20037;-61
2021/08/16 12:12:13;;;;;;;4.90;3.15;;;19.40;83.50;;;;;;5033235;28;20032;-60
2021/08/16 12:14:39;;;;;;;6.43;3.28;;;19.40;83.20;;;;;;5033119;28;20037;-61
2021/08/16 12:17:06;;;;;;;5.68;2.58;;;19.20;83.30;;;;;;5033123;28;20018;-61
2021/08/16 12:19:32;;;;;;;5.13;1.90;;;19.20;84.10;;;;;;5033036;28;20041;-61
2021/08/16 12:22:06;;;;;;;4.43;2.08;;;19.00;84.90;;;;;;5032812;28;20126;-61
2021/08/16 12:24:33;;;;;;;6.97;2.33;;;19.00;85.50;;;;;;5032398;28;20053;-61
2021/08/16 12:27:16;;;;;;;6.20;2.47;;;18.90;86.10;;;;;;5032701;28;20028;-60
2021/08/16 12:29:46;;;;;;;4.97;1.90;;;18.80;86.50;;;;;;5032815;28;20021;-61
2021/08/16 12:32:19;;;;;;;5.50;2.40;;;18.80;86.70;;;;;;5032862;28;20104;-61
2021/08/16 12:34:45;;;;;;;6.10;1.92;;;18.80;86.80;;;;;;5032934;28;20112;-61
2021/08/16 12:37:31;;;;;;;6.28;2.53;;;18.80;86.80;;;;;;5032676;28;20104;-61
2021/08/16 12:40:12;;;;;;;4.35;1.55;;;18.80;86.60;;;;;;5030191;28;20053;-61